createdAt,value
2022-08-11T00:00:12.318Z,2.90
2022-08-11T00:02:46.908Z,2.97
2022-08-11T00:05:15.514Z,3.00
2022-08-11T00:07:46.530Z,3.00
2022-08-11T00:10:15.105Z,3.10
2022-08-11T00:12:43.561Z,2.70
2022-08-11T00:15:11.121Z,2.90
2022-08-11T00:17:38.487Z,2.73
2022-08-11T00:20:15.339Z,2.77
2022-08-11T00:22:44.724Z,2.80
2022-08-11T00:25:15.304Z,3.00
2022-08-11T00:27:43.464Z,3.10
2022-08-11T00:30:13.125Z,3.13
2022-08-11T00:32:42.246Z,2.90
2022-08-11T00:35:55.939Z,3.20
2022-08-11T00:37:59.284Z,3.00
2022-08-11T00:40:49.766Z,3.07
2022-08-11T00:43:26.299Z,3.43
2022-08-11T00:45:53.443Z,3.13
2022-08-11T00:48:23.306Z,3.20
2022-08-11T00:50:58.441Z,3.00
2022-08-11T00:53:57.894Z,2.80
2022-08-11T00:56:27.761Z,2.97
2022-08-11T00:58:57.957Z,2.97
2022-08-11T01:01:27.350Z,2.90
2022-08-11T01:03:54.547Z,3.07
2022-08-11T01:06:40.521Z,3.00
2022-08-11T01:09:21.997Z,2.80
2022-08-11T01:11:56.452Z,3.00
2022-08-11T01:14:34.346Z,2.80
2022-08-11T01:17:01.879Z,3.10
2022-08-11T01:20:45.207Z,3.17
2022-08-11T01:22:34.210Z,2.87
2022-08-11T01:25:07.098Z,3.20
2022-08-11T01:27:36.996Z,3.00
2022-08-11T01:30:13.387Z,3.13
2022-08-11T01:32:40.507Z,3.00
2022-08-11T01:35:22.228Z,3.23
2022-08-11T01:37:59.533Z,2.87
2022-08-11T01:40:39.942Z,2.93
2022-08-11T01:43:44.601Z,2.70
2022-08-11T01:46:16.599Z,3.53
2022-08-11T01:48:54.727Z,2.80
2022-08-11T01:51:45.083Z,3.00
2022-08-11T01:54:25.768Z,3.00
2022-08-11T01:57:11.825Z,3.27
2022-08-11T01:59:50.854Z,2.90
2022-08-11T02:02:47.541Z,3.00
2022-08-11T02:05:33.263Z,2.80
2022-08-11T02:08:06.512Z,3.10
2022-08-11T02:11:09.136Z,2.97
2022-08-11T02:14:00.672Z,2.90
2022-08-11T02:16:34.723Z,2.80
2022-08-11T02:19:28.546Z,3.10
2022-08-11T02:22:19.500Z,3.30
2022-08-11T02:24:50.446Z,3.27
2022-08-11T02:27:20.561Z,2.87
2022-08-11T02:29:53.558Z,2.90
2022-08-11T02:32:43.594Z,3.13
2022-08-11T02:35:15.015Z,3.03
2022-08-11T02:38:01.715Z,3.30
2022-08-11T02:40:36.771Z,3.40
2022-08-11T02:43:03.950Z,3.20
2022-08-11T02:45:33.807Z,3.10
2022-08-11T02:48:25.338Z,3.13
2022-08-11T02:51:04.374Z,3.33
2022-08-11T02:53:37.612Z,2.90
2022-08-11T02:56:14.028Z,3.00
2022-08-11T02:59:06.991Z,2.83
2022-08-11T03:01:41.765Z,3.00
2022-08-11T03:04:12.707Z,2.97
2022-08-11T03:06:46.089Z,3.17
2022-08-11T03:09:19.009Z,3.20
2022-08-11T03:12:04.961Z,3.10
2022-08-11T03:14:55.279Z,3.20
2022-08-11T03:17:35.102Z,3.07
2022-08-11T03:20:21.585Z,3.30
2022-08-11T03:23:20.119Z,3.50
2022-08-11T03:25:47.599Z,3.13
2022-08-11T03:28:29.578Z,3.23
2022-08-11T03:30:59.589Z,3.03
2022-08-11T03:33:48.592Z,2.90
2022-08-11T03:36:18.436Z,2.90
2022-08-11T03:38:45.532Z,3.00
2022-08-11T03:42:01.282Z,3.00
2022-08-11T03:44:27.459Z,3.30
2022-08-11T03:47:04.377Z,3.00
2022-08-11T03:49:34.519Z,2.97
2022-08-11T03:52:08.620Z,3.00
2022-08-11T03:54:38.925Z,3.00
2022-08-11T03:57:23.933Z,3.40
2022-08-11T04:00:09.110Z,3.07
2022-08-11T04:02:55.659Z,3.20
2022-08-11T04:05:42.280Z,2.97
2022-08-11T04:08:09.396Z,3.10
2022-08-11T04:10:39.287Z,3.50
2022-08-11T04:13:24.851Z,3.10
2022-08-11T04:16:10.978Z,3.20
2022-08-11T04:18:40.994Z,3.40
2022-08-11T04:21:31.243Z,3.37
2022-08-11T04:24:38.308Z,3.23
2022-08-11T04:27:25.037Z,3.20
2022-08-11T04:30:24.011Z,3.20
2022-08-11T04:33:00.068Z,3.23
2022-08-11T04:35:51.552Z,3.57
2022-08-11T04:38:37.640Z,3.47
2022-08-11T04:41:23.225Z,3.33
2022-08-11T04:44:13.694Z,3.43
2022-08-11T04:46:59.094Z,3.30
2022-08-11T04:49:54.741Z,3.57
2022-08-11T04:52:59.542Z,3.57
2022-08-11T04:56:03.969Z,3.40
2022-08-11T04:59:08.503Z,3.30
2022-08-11T05:01:41.857Z,3.47
2022-08-11T05:04:32.092Z,3.60
2022-08-11T05:07:17.374Z,3.70
2022-08-11T05:09:44.477Z,3.47
2022-08-11T05:12:26.953Z,3.50
2022-08-11T05:15:13.731Z,3.87
2022-08-11T05:17:59.722Z,3.93
2022-08-11T05:20:46.132Z,3.63
2022-08-11T05:23:32.600Z,3.47
2022-08-11T05:26:47.002Z,3.60
2022-08-11T05:30:02.034Z,3.60
2022-08-11T05:33:07.167Z,3.60
2022-08-11T05:36:01.991Z,3.73
2022-08-11T05:38:46.279Z,3.30
2022-08-11T05:41:32.696Z,3.40
2022-08-11T05:44:22.236Z,3.60
2022-08-11T05:47:08.877Z,3.80
2022-08-11T05:49:54.928Z,3.60
2022-08-11T05:52:43.520Z,3.60
2022-08-11T05:55:33.072Z,3.83
2022-08-11T05:58:01.863Z,3.70
2022-08-11T06:00:29.297Z,3.50
2022-08-11T06:02:59.174Z,3.30
2022-08-11T06:05:38.520Z,3.90
2022-08-11T06:08:12.762Z,3.40
2022-08-11T06:10:44.256Z,3.47
2022-08-11T06:13:15.337Z,3.63
2022-08-11T06:15:46.948Z,3.33
2022-08-11T06:18:14.699Z,3.30
2022-08-11T06:20:47.083Z,3.27
2022-08-11T06:23:17.921Z,3.50
2022-08-11T06:25:45.250Z,2.97
2022-08-11T06:28:15.996Z,3.60
2022-08-11T06:30:49.006Z,3.97
2022-08-11T06:33:16.222Z,3.43
2022-08-11T06:35:55.159Z,3.40
2022-08-11T06:38:48.689Z,3.37
2022-08-11T06:41:34.454Z,3.30
2022-08-11T06:44:13.771Z,3.63
2022-08-11T06:46:42.176Z,3.53
2022-08-11T06:49:28.728Z,3.47
2022-08-11T06:52:00.702Z,3.40
2022-08-11T06:54:37.004Z,3.47
2022-08-11T06:57:29.738Z,3.40
2022-08-11T07:00:17.379Z,3.30
2022-08-11T07:03:08.268Z,3.40
2022-08-11T07:05:39.005Z,3.17
2022-08-11T07:08:33.983Z,3.17
2022-08-11T07:11:39.688Z,3.37
2022-08-11T07:14:26.580Z,2.97
2022-08-11T07:16:54.412Z,2.97
2022-08-11T07:19:47.977Z,3.10
2022-08-11T07:22:34.344Z,3.10
2022-08-11T07:25:29.313Z,3.07
2022-08-11T07:28:22.440Z,3.33
2022-08-11T07:30:54.742Z,3.00
2022-08-11T07:34:05.365Z,3.07
2022-08-11T07:36:14.482Z,3.23
2022-08-11T07:38:47.417Z,2.80
2022-08-11T07:41:15.938Z,2.80
2022-08-11T07:43:44.172Z,2.80
2022-08-11T07:46:30.914Z,2.80
2022-08-11T07:49:17.898Z,3.10
2022-08-11T07:52:03.873Z,2.93
2022-08-11T07:54:33.404Z,2.73
2022-08-11T07:57:09.036Z,2.87
2022-08-11T08:00:00.695Z,2.80
2022-08-11T08:02:51.057Z,2.53
2022-08-11T08:05:37.218Z,2.60
2022-08-11T08:08:23.736Z,2.50
2022-08-11T08:11:09.890Z,2.63
2022-08-11T08:13:56.919Z,2.30
2022-08-11T08:16:42.778Z,2.45
2022-08-11T08:19:12.614Z,2.50
2022-08-11T08:21:39.995Z,2.22
2022-08-11T08:24:12.923Z,2.33
2022-08-11T08:26:59.120Z,1.90
2022-08-11T08:29:51.080Z,2.22
2022-08-11T08:32:18.670Z,2.25
2022-08-11T08:34:46.856Z,2.17
2022-08-11T08:37:45.733Z,2.13
2022-08-11T08:40:03.080Z,1.90
2022-08-11T08:42:31.669Z,1.80
2022-08-11T08:45:06.855Z,1.90
2022-08-11T08:47:43.510Z,1.80
2022-08-11T08:50:16.323Z,2.05
2022-08-11T08:52:48.382Z,2.20
2022-08-11T08:55:19.524Z,2.17
2022-08-11T08:57:48.859Z,2.40
2022-08-11T09:00:20.795Z,2.17
2022-08-11T09:02:50.373Z,2.15
2022-08-11T09:05:18.346Z,2.10
2022-08-11T09:07:47.555Z,2.30
2022-08-11T09:10:17.365Z,1.92
2022-08-11T09:12:44.726Z,2.08
2022-08-11T09:15:12.581Z,2.25
2022-08-11T09:17:41.190Z,1.88
2022-08-11T09:20:08.739Z,1.70
2022-08-11T09:23:24.242Z,2.10
2022-08-11T09:26:01.654Z,1.90
2022-08-11T09:28:30.581Z,2.15
2022-08-11T09:31:01.157Z,2.00
2022-08-11T09:33:29.155Z,2.08
2022-08-11T09:35:56.758Z,2.13
2022-08-11T09:38:49.305Z,1.90
2022-08-11T09:41:17.271Z,2.03
2022-08-11T09:44:04.522Z,2.10
2022-08-11T09:46:33.152Z,1.95
2022-08-11T09:49:01.430Z,2.00
2022-08-11T09:51:31.793Z,2.15
2022-08-11T09:54:03.562Z,2.00
2022-08-11T09:56:50.925Z,2.00
2022-08-11T09:59:22.088Z,2.10
2022-08-11T10:01:53.040Z,2.00
2022-08-11T10:04:35.553Z,1.95
2022-08-11T10:07:05.230Z,2.28
2022-08-11T10:09:40.319Z,2.25
2022-08-11T10:12:10.425Z,1.83
2022-08-11T10:14:59.689Z,2.10
2022-08-11T10:17:27.540Z,1.92
2022-08-11T10:20:05.485Z,1.92
2022-08-11T10:22:52.236Z,1.77
2022-08-11T10:25:38.167Z,2.10
2022-08-11T10:28:28.281Z,1.92
2022-08-11T10:31:14.947Z,1.92
2022-08-11T10:34:00.089Z,2.05
2022-08-11T10:36:48.220Z,1.70
2022-08-11T10:39:18.173Z,1.92
2022-08-11T10:42:17.062Z,1.77
2022-08-11T10:44:55.209Z,1.70
2022-08-11T10:47:35.100Z,1.88
2022-08-11T10:50:27.983Z,1.70
2022-08-11T10:53:14.816Z,1.70
2022-08-11T10:58:49.803Z,1.67
2022-08-11T11:01:19.206Z,1.63
2022-08-11T11:03:47.413Z,1.63
2022-08-11T11:06:29.149Z,1.50
2022-08-11T11:09:04.518Z,1.67
2022-08-11T11:12:14.058Z,1.53
2022-08-11T11:15:00.883Z,1.53
2022-08-11T11:17:56.910Z,1.80
2022-08-11T11:20:36.195Z,1.50
2022-08-11T11:23:19.929Z,1.57
2022-08-11T11:26:10.790Z,1.27
2022-08-11T11:28:56.958Z,1.40
2022-08-11T11:31:30.227Z,1.03
2022-08-11T11:34:12.689Z,1.37
2022-08-11T11:36:40.112Z,1.57
2022-08-11T11:39:08.135Z,1.40
2022-08-11T11:41:35.889Z,1.77
2022-08-11T11:44:03.522Z,1.40
2022-08-11T11:46:31.665Z,1.30
2022-08-11T11:49:16.797Z,1.17
2022-08-11T11:51:45.590Z,1.00
2022-08-11T11:54:17.598Z,1.10
2022-08-11T11:56:45.559Z,1.10
2022-08-11T11:59:32.001Z,1.20
2022-08-11T12:02:00.072Z,1.07
2022-08-11T12:04:27.874Z,1.40
2022-08-11T12:07:15.327Z,1.10
2022-08-11T12:09:42.659Z,1.30
2022-08-11T12:12:28.855Z,0.90
2022-08-11T12:14:56.220Z,0.90
2022-08-11T12:17:24.014Z,0.80
2022-08-11T12:19:51.446Z,1.10
2022-08-11T12:22:39.045Z,1.10
2022-08-11T12:25:24.949Z,1.07
2022-08-11T12:27:54.604Z,1.17
2022-08-11T12:30:22.053Z,1.10
2022-08-11T12:32:49.688Z,0.80
2022-08-11T12:35:17.187Z,1.00
2022-08-11T12:37:44.341Z,1.00
2022-08-11T12:40:49.424Z,1.00
2022-08-11T12:43:39.637Z,1.03
2022-08-11T12:46:15.784Z,1.10
2022-08-11T12:49:04.039Z,1.00
2022-08-11T12:52:12.838Z,1.00
2022-08-11T12:54:57.078Z,0.90
2022-08-11T12:57:45.491Z,0.90
2022-08-11T13:00:31.715Z,1.00
2022-08-11T13:03:17.895Z,0.93
2022-08-11T13:05:46.964Z,1.10
2022-08-11T13:08:17.403Z,0.97
2022-08-11T13:11:04.185Z,1.10
2022-08-11T13:13:54.135Z,1.10
2022-08-11T13:16:20.726Z,1.27
2022-08-11T13:18:48.279Z,1.03
2022-08-11T13:21:20.133Z,1.30
2022-08-11T13:24:00.635Z,1.13
2022-08-11T13:26:43.178Z,1.47
2022-08-11T13:29:26.799Z,1.20
2022-08-11T13:31:55.924Z,1.10
2022-08-11T13:34:24.715Z,1.20
2022-08-11T13:36:52.955Z,1.50
2022-08-11T13:39:21.057Z,1.20
2022-08-11T13:41:51.504Z,1.23
2022-08-11T13:44:24.786Z,1.27
2022-08-11T13:46:53.384Z,1.20
2022-08-11T13:49:21.631Z,1.20
2022-08-11T13:51:49.014Z,1.40
2022-08-11T13:54:20.491Z,1.30
2022-08-11T13:56:52.908Z,1.20
2022-08-11T13:59:23.067Z,1.37
2022-08-11T14:02:20.931Z,1.27
2022-08-11T14:04:44.277Z,1.40
2022-08-11T14:07:12.425Z,1.40
2022-08-11T14:09:41.274Z,1.40
2022-08-11T14:12:29.699Z,1.47
2022-08-11T14:15:05.843Z,1.37
2022-08-11T14:17:48.665Z,1.40
2022-08-11T14:20:39.723Z,1.30
2022-08-11T14:23:05.559Z,1.50
2022-08-11T14:26:00.743Z,1.80
2022-08-11T14:28:31.729Z,1.30
2022-08-11T14:31:02.214Z,1.50
2022-08-11T14:33:53.532Z,1.50
2022-08-11T14:36:17.716Z,1.60
2022-08-11T14:38:45.290Z,1.80
2022-08-11T14:41:31.096Z,1.40
2022-08-11T14:44:17.471Z,1.40
2022-08-11T14:47:03.818Z,1.50
2022-08-11T14:49:31.308Z,1.50
2022-08-11T14:51:58.724Z,1.33
2022-08-11T14:54:45.473Z,1.50
2022-08-11T14:57:13.153Z,1.40
2022-08-11T14:59:40.484Z,1.30
2022-08-11T15:02:26.532Z,1.57
2022-08-11T15:04:56.104Z,1.43
2022-08-11T15:07:29.842Z,1.50
2022-08-11T15:10:12.221Z,1.53
2022-08-11T15:12:44.490Z,1.30
2022-08-11T15:15:31.187Z,1.30
2022-08-11T15:17:59.680Z,1.60
2022-08-11T15:20:46.901Z,1.60
2022-08-11T15:23:32.947Z,1.50
2022-08-11T15:26:01.685Z,1.30
2022-08-11T15:28:49.082Z,1.40
2022-08-11T15:31:29.064Z,1.67
2022-08-11T15:34:16.401Z,1.60
2022-08-11T15:37:06.700Z,1.43
2022-08-11T15:39:59.146Z,1.43
2022-08-11T15:42:45.100Z,1.40
2022-08-11T15:45:32.700Z,1.40
2022-08-11T15:48:05.886Z,1.30
2022-08-11T15:50:35.156Z,1.50
2022-08-11T15:53:09.488Z,1.50
2022-08-11T15:55:36.989Z,1.40
2022-08-11T15:58:26.846Z,1.60
2022-08-11T16:01:13.367Z,1.50
2022-08-11T16:04:07.300Z,1.37
2022-08-11T16:06:36.630Z,1.63
2022-08-11T16:09:17.901Z,1.80
2022-08-11T16:11:46.454Z,1.70
2022-08-11T16:14:33.670Z,1.50
2022-08-11T16:17:01.148Z,1.53
2022-08-11T16:19:36.050Z,1.47
2022-08-11T16:22:07.259Z,1.60
2022-08-11T16:26:30.614Z,1.50
2022-08-11T16:27:24.467Z,1.70
2022-08-11T16:29:52.398Z,1.60
2022-08-11T16:32:22.151Z,1.70
2022-08-11T16:35:14.169Z,2.07
2022-08-11T16:38:01.112Z,1.90
2022-08-11T16:40:29.480Z,1.60
2022-08-11T16:43:15.624Z,1.80
2022-08-11T16:46:02.192Z,1.40
2022-08-11T16:48:35.096Z,1.80
2022-08-11T16:51:03.847Z,1.67
2022-08-11T16:54:00.149Z,1.60
2022-08-11T16:56:23.755Z,1.50
2022-08-11T16:59:11.593Z,1.20
2022-08-11T17:01:38.885Z,1.30
2022-08-11T17:04:50.371Z,1.30
2022-08-11T17:07:41.580Z,1.30
2022-08-11T17:11:01.678Z,1.30
2022-08-11T17:13:34.568Z,1.50
2022-08-11T17:16:12.142Z,1.40
2022-08-11T17:18:45.611Z,1.30
2022-08-11T17:21:15.689Z,1.60
2022-08-11T17:23:52.208Z,1.70
2022-08-11T17:26:21.549Z,1.40
2022-08-11T17:28:52.113Z,1.20
2022-08-11T17:31:39.354Z,1.33
2022-08-11T17:34:28.292Z,1.30
2022-08-11T17:36:56.152Z,1.30
2022-08-11T17:39:29.274Z,1.30
2022-08-11T17:42:16.171Z,1.40
2022-08-11T17:45:04.550Z,1.37
2022-08-11T17:47:51.396Z,1.20
2022-08-11T17:50:18.824Z,1.43
2022-08-11T17:53:05.791Z,1.30
2022-08-11T17:55:53.878Z,1.23
2022-08-11T17:58:40.558Z,1.20
2022-08-11T18:01:09.574Z,1.20
2022-08-11T18:03:39.872Z,1.30
2022-08-11T18:06:12.266Z,1.17
2022-08-11T18:09:02.731Z,1.20
2022-08-11T18:12:11.081Z,1.17
2022-08-11T18:14:56.498Z,1.07
2022-08-11T18:17:42.503Z,1.20
2022-08-11T18:20:28.780Z,1.23
2022-08-11T18:23:15.066Z,1.40
2022-08-11T18:26:06.395Z,1.20
2022-08-11T18:28:57.329Z,1.30
2022-08-11T18:31:44.232Z,1.33
2022-08-11T18:34:33.437Z,1.20
2022-08-11T18:37:27.181Z,1.23
2022-08-11T18:40:19.708Z,1.10
2022-08-11T18:43:06.719Z,1.37
2022-08-11T18:45:57.483Z,1.33
2022-08-11T18:48:54.640Z,0.97
2022-08-11T18:51:40.830Z,1.10
2022-08-11T18:54:30.782Z,1.20
2022-08-11T18:57:19.227Z,1.67
2022-08-11T19:00:05.948Z,1.30
2022-08-11T19:02:55.008Z,1.20
2022-08-11T19:06:32.489Z,1.33
2022-08-11T19:08:51.647Z,1.20
2022-08-11T19:11:42.465Z,1.30
2022-08-11T19:14:29.617Z,1.53
2022-08-11T19:17:43.853Z,1.50
2022-08-11T19:20:27.783Z,1.33
2022-08-11T19:23:14.691Z,1.30
2022-08-11T19:26:01.677Z,1.40
2022-08-11T19:28:48.199Z,1.20
2022-08-11T19:31:34.781Z,1.40
2022-08-11T19:34:20.524Z,1.40
2022-08-11T19:37:07.193Z,1.60
2022-08-11T19:39:54.518Z,1.50
2022-08-11T19:42:41.283Z,1.40
2022-08-11T19:45:27.653Z,1.43
2022-08-11T19:48:31.380Z,1.50
2022-08-11T19:51:18.793Z,1.10
2022-08-11T19:54:05.213Z,1.30
2022-08-11T19:56:51.372Z,1.40
2022-08-11T19:59:39.386Z,1.30
2022-08-11T20:02:25.399Z,1.33
2022-08-11T20:05:11.363Z,1.30
2022-08-11T20:07:57.509Z,1.20
2022-08-11T20:10:44.169Z,1.50
2022-08-11T20:13:30.860Z,1.20
2022-08-11T20:16:18.387Z,1.90
2022-08-11T20:19:05.331Z,1.27
2022-08-11T20:21:51.632Z,1.37
2022-08-11T20:24:38.457Z,1.10
2022-08-11T20:27:25.413Z,1.50
2022-08-11T20:30:12.288Z,1.57
2022-08-11T20:32:59.320Z,1.40
2022-08-11T20:35:45.741Z,1.33
2022-08-11T20:38:33.233Z,1.70
2022-08-11T20:41:19.713Z,1.80
2022-08-11T20:44:09.196Z,1.30
2022-08-11T20:46:57.324Z,1.40
2022-08-11T20:49:50.524Z,1.47
2022-08-11T20:52:40.614Z,1.47
2022-08-11T20:55:46.294Z,1.40
2022-08-11T21:04:53.956Z,1.63
2022-08-11T21:07:41.822Z,1.90
2022-08-11T21:10:29.895Z,1.40
2022-08-11T21:13:26.321Z,1.63
2022-08-11T21:16:25.229Z,1.60
2022-08-11T21:19:14.282Z,1.30
2022-08-11T21:22:00.590Z,1.57
2022-08-11T21:24:49.154Z,1.50
2022-08-11T21:27:36.606Z,1.53
2022-08-11T21:30:23.291Z,1.50
2022-08-11T21:33:10.169Z,1.30
2022-08-11T21:35:56.589Z,1.67
2022-08-11T21:38:42.540Z,1.60
2022-08-11T21:41:29.591Z,1.50
2022-08-11T21:44:15.422Z,1.33
2022-08-11T21:47:01.533Z,1.60
2022-08-11T21:49:49.014Z,1.50
2022-08-11T21:52:35.395Z,1.50
2022-08-11T21:55:21.449Z,1.67
2022-08-11T21:58:07.905Z,1.50
2022-08-11T22:00:53.948Z,1.60
2022-08-11T22:03:49.373Z,1.50
2022-08-11T22:06:36.508Z,1.47
2022-08-11T22:09:22.507Z,1.60
2022-08-11T22:12:34.375Z,1.60
2022-08-11T22:15:14.854Z,1.73
2022-08-11T22:18:00.833Z,1.40
2022-08-11T22:20:47.222Z,1.30
2022-08-11T22:23:36.147Z,1.57
2022-08-11T22:26:24.316Z,1.53
2022-08-11T22:29:10.558Z,1.70
2022-08-11T22:31:56.933Z,1.40
2022-08-11T22:34:51.194Z,1.60
2022-08-11T22:37:40.261Z,1.43
2022-08-11T22:40:27.141Z,1.37
2022-08-11T22:43:13.198Z,1.40
2022-08-11T22:45:59.164Z,1.67
2022-08-11T22:48:48.184Z,1.53
2022-08-11T22:51:34.852Z,1.80
2022-08-11T22:54:24.497Z,1.30
2022-08-11T22:57:10.390Z,1.60
2022-08-11T22:59:57.397Z,1.67
2022-08-11T23:02:45.470Z,1.50
2022-08-11T23:05:32.777Z,1.70
2022-08-11T23:08:19.301Z,1.77
2022-08-11T23:11:06.459Z,1.80
2022-08-11T23:13:52.926Z,1.73
2022-08-11T23:16:39.365Z,1.57
2022-08-11T23:20:10.854Z,1.60
2022-08-11T23:22:39.496Z,1.40
2022-08-11T23:25:36.458Z,1.57
2022-08-11T23:28:22.476Z,1.77
2022-08-11T23:31:10.491Z,1.77
2022-08-11T23:33:59.189Z,1.90
2022-08-11T23:36:47.418Z,1.53
2022-08-11T23:39:34.134Z,1.77
2022-08-11T23:42:20.394Z,1.50
2022-08-11T23:45:09.684Z,1.60
2022-08-11T23:47:57.116Z,1.40
2022-08-11T23:50:43.180Z,1.70
2022-08-11T23:53:29.292Z,1.67
2022-08-11T23:56:15.330Z,1.77
2022-08-11T23:59:01.240Z,1.60
